Time;durP1;ratioP1;P1;durP2;ratioP2;P2;SDS_P1;SDS_P2;PMS_P1;PMS_P2;Temp;Humidity;BMP_temperature;BMP_pressure;BME280_temperature;BME280_humidity;BME280_pressure;Samples;Min_cycle;Max_cycle;Signal;HPM_P1;HPM_P2
2022/04/08 00:00:49;;;;;;;9.90;2.42;;;5.30;99.90;;;;;;4971568;28;20053;-79
2022/04/08 00:03:14;;;;;;;6.82;1.73;;;5.20;99.90;;;;;;4988231;28;20172;-80
2022/04/08 00:05:40;;;;;;;9.18;1.83;;;5.20;99.90;;;;;;4954981;28;20058;-79
2022/04/08 00:08:07;;;;;;;9.73;2.05;;;5.10;99.90;;;;;;4956089;28;20050;-80
2022/04/08 00:10:33;;;;;;;8.35;2.03;;;5.10;99.90;;;;;;4988226;28;20038;-80
2022/04/08 00:12:58;;;;;;;6.72;1.70;;;6.20;99.90;;;;;;4972571;28;20133;-81
2022/04/08 00:15:24;;;;;;;5.80;2.00;;;5.10;99.90;;;;;;4971669;28;20121;-81
2022/04/08 00:17:50;;;;;;;8.15;1.70;;;5.00;99.90;;;;;;4988712;28;20054;-81
2022/04/08 00:20:16;;;;;;;6.90;1.70;;;5.00;99.90;;;;;;4955872;28;20054;-80
2022/04/08 00:22:42;;;;;;;10.07;2.40;;;5.00;99.90;;;;;;4955871;28;20149;-80
2022/04/08 00:25:11;;;;;;;8.18;1.60;;;5.10;99.90;;;;;;4955613;28;20062;-80
2022/04/08 00:27:38;;;;;;;9.93;1.90;;;5.10;99.90;;;;;;4970649;28;20080;-81
2022/04/08 00:30:05;;;;;;;10.00;2.28;;;5.10;99.90;;;;;;4988534;28;20118;-81
2022/04/08 00:32:33;;;;;;;11.50;2.13;;;5.20;99.90;;;;;;4972246;28;20046;-78
2022/04/08 00:34:59;;;;;;;10.00;1.70;;;5.80;99.90;;;;;;4987776;28;20051;-78
2022/04/08 00:37:25;;;;;;;8.23;2.67;;;5.60;99.90;;;;;;4987748;28;20054;-78
2022/04/08 00:39:51;;;;;;;5.90;2.42;;;5.30;99.90;;;;;;4987283;28;20101;-78
2022/04/08 00:42:16;;;;;;;12.95;2.38;;;5.40;99.90;;;;;;4971813;28;20054;-78
2022/04/08 00:44:42;;;;;;;8.77;2.10;;;5.40;99.90;;;;;;4956508;28;20467;-78
2022/04/08 00:47:08;;;;;;;12.27;1.90;;;5.40;99.90;;;;;;4988453;28;20086;-78
2022/04/08 00:49:36;;;;;;;10.82;2.28;;;5.40;99.90;;;;;;4963032;28;20819;-80
2022/04/08 00:52:02;;;;;;;9.43;1.83;;;5.60;99.90;;;;;;4970079;28;20076;-80
2022/04/08 00:54:30;;;;;;;14.07;2.10;;;5.50;99.90;;;;;;4986031;28;20054;-80
2022/04/08 00:56:57;;;;;;;6.82;2.10;;;5.40;99.90;;;;;;4987470;28;20085;-80
2022/04/08 00:59:27;;;;;;;10.30;2.17;;;6.00;99.90;;;;;;4972193;28;20053;-80
2022/04/08 01:01:53;;;;;;;11.18;1.98;;;5.60;99.90;;;;;;4972238;28;20141;-80
2022/04/08 01:04:21;;;;;;;18.23;2.92;;;6.40;99.90;;;;;;4963432;28;20479;-80
2022/04/08 01:06:47;;;;;;;10.18;1.67;;;5.60;99.90;;;;;;4971271;28;20053;-81
2022/04/08 01:09:13;;;;;;;6.88;1.60;;;5.60;99.90;;;;;;4979187;28;20061;-80
2022/04/08 01:11:40;;;;;;;9.32;1.98;;;5.60;99.90;;;;;;4945265;28;20046;-81
2022/04/08 01:14:11;;;;;;;9.10;2.03;;;5.70;99.90;;;;;;4954007;28;20121;-81
2022/04/08 01:16:37;;;;;;;9.80;2.00;;;5.70;99.90;;;;;;4960857;28;20229;-81
2022/04/08 01:19:04;;;;;;;7.70;1.92;;;5.80;99.90;;;;;;4959878;28;20492;-80
2022/04/08 01:21:31;;;;;;;11.23;2.13;;;5.80;99.90;;;;;;4975383;28;20050;-80
2022/04/08 01:23:58;;;;;;;8.30;2.10;;;5.80;99.90;;;;;;4966169;28;20046;-79
2022/04/08 01:26:25;;;;;;;12.38;1.88;;;5.80;99.90;;;;;;4990047;28;20124;-81
2022/04/08 01:28:55;;;;;;;10.50;2.28;;;5.90;99.90;;;;;;4990214;28;20038;-81
2022/04/08 01:31:23;;;;;;;10.70;2.10;;;6.00;99.90;;;;;;4974035;28;20046;-81
2022/04/08 01:33:51;;;;;;;11.85;2.17;;;6.10;99.90;;;;;;4958873;28;20117;-80
2022/04/08 01:36:17;;;;;;;10.90;2.10;;;6.20;99.90;;;;;;4990156;28;20057;-80
2022/04/08 01:38:42;;;;;;;13.60;1.92;;;6.30;99.90;;;;;;4989977;28;20416;-80
2022/04/08 01:41:08;;;;;;;8.38;1.50;;;6.10;99.90;;;;;;4958153;28;20057;-80
2022/04/08 01:43:34;;;;;;;9.98;2.20;;;6.80;99.90;;;;;;4965083;28;20081;-80
2022/04/08 01:46:00;;;;;;;9.48;1.83;;;6.00;99.90;;;;;;4941591;28;20054;-80
2022/04/08 01:48:26;;;;;;;8.63;1.75;;;6.00;99.90;;;;;;4965622;28;20446;-80
2022/04/08 01:50:51;;;;;;;10.93;2.08;;;6.00;99.90;;;;;;4973888;28;20514;-80
2022/04/08 01:53:17;;;;;;;9.35;2.35;;;6.00;99.90;;;;;;4957812;28;20050;-80
2022/04/08 01:55:43;;;;;;;14.68;2.90;;;6.00;99.90;;;;;;4956780;28;20484;-80
2022/04/08 01:58:10;;;;;;;13.32;2.50;;;6.00;99.90;;;;;;4964727;28;20074;-80
2022/04/08 02:00:37;;;;;;;11.15;2.53;;;6.10;99.90;;;;;;4949036;28;20038;-80
2022/04/08 02:03:03;;;;;;;10.07;2.53;;;6.00;99.90;;;;;;4973979;28;20054;-80
2022/04/08 02:05:29;;;;;;;6.72;1.60;;;6.00;99.90;;;;;;4972711;28;20061;-80
2022/04/08 02:07:54;;;;;;;7.05;1.60;;;5.90;99.90;;;;;;4973516;28;20447;-80
2022/04/08 02:10:21;;;;;;;9.40;1.88;;;5.90;99.90;;;;;;4973251;28;20077;-80
2022/04/08 02:12:47;;;;;;;9.38;2.03;;;5.80;99.90;;;;;;4973579;28;20519;-80
2022/04/08 02:15:13;;;;;;;8.48;1.75;;;5.80;99.90;;;;;;4957738;28;20188;-80
2022/04/08 02:17:39;;;;;;;13.52;1.83;;;5.80;99.90;;;;;;4956419;28;20056;-80
2022/04/08 02:20:08;;;;;;;6.03;1.48;;;5.80;99.90;;;;;;4989617;28;20042;-80
2022/04/08 02:22:35;;;;;;;5.35;1.85;;;5.80;99.90;;;;;;4949397;28;1124791;-80
2022/04/08 02:25:02;;;;;;;6.38;1.50;;;5.80;99.90;;;;;;4989857;28;20501;-80
2022/04/08 02:27:29;;;;;;;4.47;1.33;;;6.90;99.90;;;;;;4973805;28;20530;-80
2022/04/08 02:30:00;;;;;;;6.75;1.52;;;5.90;99.90;;;;;;4989254;28;20157;-79
2022/04/08 02:32:26;;;;;;;7.82;1.70;;;5.80;99.90;;;;;;4990046;28;20415;-80
2022/04/08 02:34:52;;;;;;;3.55;1.20;;;6.00;99.90;;;;;;4973421;28;20046;-80
2022/04/08 02:37:18;;;;;;;12.43;2.05;;;5.80;99.90;;;;;;4990614;28;20153;-79
2022/04/08 02:39:44;;;;;;;14.07;2.30;;;5.90;99.90;;;;;;4989392;28;20046;-78
2022/04/08 02:42:10;;;;;;;10.35;1.85;;;6.20;99.90;;;;;;4990682;28;20123;-79
2022/04/08 02:44:36;;;;;;;6.25;1.60;;;5.50;99.90;;;;;;4965939;28;20042;-80
2022/04/08 02:47:02;;;;;;;10.68;1.73;;;5.20;99.90;;;;;;4974219;28;20137;-80
2022/04/08 02:49:28;;;;;;;4.50;1.13;;;4.90;99.90;;;;;;4958307;28;20070;-80
2022/04/08 02:51:54;;;;;;;4.25;1.00;;;4.70;99.90;;;;;;4974155;28;20138;-80
2022/04/08 02:54:20;;;;;;;4.63;0.90;;;4.60;99.90;;;;;;4958447;28;20111;-80
2022/04/08 02:56:45;;;;;;;6.70;1.30;;;4.50;99.90;;;;;;4989259;28;20080;-80
2022/04/08 02:59:11;;;;;;;9.80;2.05;;;4.50;99.90;;;;;;4957770;28;20042;-80
2022/04/08 03:01:38;;;;;;;7.63;1.50;;;4.40;99.90;;;;;;4988915;28;20177;-80
2022/04/08 03:04:08;;;;;;;11.80;1.80;;;4.30;99.90;;;;;;4990231;28;20046;-79
2022/04/08 03:06:35;;;;;;;11.00;2.03;;;4.20;99.90;;;;;;4988987;28;20089;-79
2022/04/08 03:09:02;;;;;;;10.70;1.92;;;4.20;99.90;;;;;;4990575;28;20050;-79
2022/04/08 03:11:28;;;;;;;3.60;1.42;;;4.60;99.90;;;;;;4973755;28;20050;-79
2022/04/08 03:13:54;;;;;;;6.07;1.30;;;4.10;99.90;;;;;;4973591;28;20388;-79
2022/04/08 03:16:20;;;;;;;7.68;1.17;;;5.20;99.90;;;;;;4988688;28;20050;-80
2022/04/08 03:18:46;;;;;;;5.82;1.00;;;4.70;99.90;;;;;;4972917;28;20054;-79
2022/04/08 03:21:12;;;;;;;2.97;1.20;;;5.10;99.90;;;;;;4949495;28;20621;-80
2022/04/08 03:23:39;;;;;;;6.07;1.40;;;4.40;99.90;;;;;;4988265;28;20053;-80
2022/04/08 03:26:05;;;;;;;9.02;1.55;;;3.90;99.90;;;;;;5005046;28;20054;-79
2022/04/08 03:28:31;;;;;;;4.63;1.10;;;4.20;99.90;;;;;;4989534;28;20050;-80
2022/04/08 03:30:58;;;;;;;5.82;1.48;;;4.80;99.90;;;;;;4989494;28;20058;-80
2022/04/08 03:33:24;;;;;;;6.20;1.70;;;4.00;99.90;;;;;;4988917;28;20054;-80
2022/04/08 03:35:49;;;;;;;6.28;1.65;;;4.50;99.90;;;;;;4988349;28;20046;-79
2022/04/08 03:38:15;;;;;;;7.82;1.65;;;4.00;99.90;;;;;;4941855;28;20086;-79
2022/04/08 03:40:41;;;;;;;5.68;1.67;;;5.00;99.90;;;;;;4939588;28;20480;-79
2022/04/08 03:43:06;;;;;;;4.95;1.25;;;4.00;99.90;;;;;;4940962;28;20053;-80
2022/04/08 03:45:32;;;;;;;8.07;1.38;;;4.00;99.90;;;;;;4989031;28;20046;-79
2022/04/08 03:47:58;;;;;;;8.68;1.60;;;4.10;99.90;;;;;;4956512;28;20507;-80
2022/04/08 03:50:23;;;;;;;6.90;1.30;;;5.30;99.90;;;;;;4989390;28;20089;-80
2022/04/08 03:52:49;;;;;;;7.90;1.67;;;4.20;99.90;;;;;;4956180;28;20053;-80
2022/04/08 03:55:16;;;;;;;6.88;1.92;;;4.60;99.90;;;;;;4988886;28;20529;-80
2022/04/08 03:57:41;;;;;;;7.93;1.73;;;4.20;99.90;;;;;;4972472;28;20063;-80
2022/04/08 04:00:08;;;;;;;6.20;1.67;;;4.20;99.90;;;;;;4972082;28;20046;-80
2022/04/08 04:02:35;;;;;;;6.28;1.50;;;4.20;99.90;;;;;;4980445;28;20096;-80
2022/04/08 04:05:01;;;;;;;4.43;1.50;;;4.10;99.90;;;;;;4972752;28;20581;-79
2022/04/08 04:07:27;;;;;;;5.30;1.13;;;4.10;99.90;;;;;;4972356;28;20420;-79
2022/04/08 04:09:53;;;;;;;7.10;1.20;;;4.00;99.90;;;;;;4971266;28;20492;-79
2022/04/08 04:12:19;;;;;;;6.85;1.33;;;5.20;99.90;;;;;;4971396;28;20046;-80
2022/04/08 04:14:44;;;;;;;6.32;1.10;;;4.00;99.90;;;;;;4955297;28;20112;-80
2022/04/08 04:17:10;;;;;;;3.67;0.95;;;5.10;99.90;;;;;;4972473;28;20479;-80
2022/04/08 04:19:36;;;;;;;2.58;1.05;;;4.00;99.90;;;;;;4971511;28;20046;-80
2022/04/08 04:22:02;;;;;;;4.68;1.00;;;4.30;99.90;;;;;;4988264;28;20474;-80
2022/04/08 04:24:28;;;;;;;3.50;1.10;;;4.00;99.90;;;;;;4954923;28;20141;-80
2022/04/08 04:26:54;;;;;;;4.10;1.35;;;5.30;99.90;;;;;;4970544;28;20149;-80
2022/04/08 04:29:19;;;;;;;5.50;1.30;;;4.10;99.90;;;;;;4954595;28;20190;-80
2022/04/08 04:31:46;;;;;;;6.28;1.20;;;4.10;99.90;;;;;;4954169;28;20089;-79
2022/04/08 04:34:12;;;;;;;5.25;1.20;;;5.30;99.90;;;;;;4973629;28;20046;-80
2022/04/08 04:36:38;;;;;;;7.07;1.58;;;4.30;99.90;;;;;;4955490;28;20061;-81
2022/04/08 04:39:04;;;;;;;3.10;1.13;;;4.30;99.90;;;;;;4988829;28;20058;-81
2022/04/08 04:41:30;;;;;;;4.72;1.17;;;4.30;99.90;;;;;;4971567;28;20510;-80
2022/04/08 04:43:55;;;;;;;3.05;1.10;;;4.30;99.90;;;;;;4955604;28;20073;-80
2022/04/08 04:46:21;;;;;;;9.13;1.48;;;5.30;99.90;;;;;;4964829;28;20467;-79
2022/04/08 04:48:47;;;;;;;6.57;1.10;;;4.40;99.90;;;;;;4987999;28;20060;-79
2022/04/08 04:51:16;;;;;;;7.25;1.45;;;4.40;99.90;;;;;;4964383;28;20137;-80
2022/04/08 04:53:42;;;;;;;8.48;1.67;;;4.50;99.90;;;;;;4987626;28;20077;-80
2022/04/08 04:56:08;;;;;;;4.75;1.55;;;4.50;99.90;;;;;;4987846;28;20059;-80
2022/04/08 04:58:34;;;;;;;10.75;2.17;;;5.10;99.90;;;;;;4988084;28;20403;-79
2022/04/08 05:00:59;;;;;;;6.75;1.80;;;5.90;99.90;;;;;;4986754;28;20050;-80
2022/04/08 05:03:25;;;;;;;6.40;2.13;;;4.70;99.90;;;;;;4971982;28;20499;-80
2022/04/08 05:05:53;;;;;;;10.70;2.08;;;5.10;99.90;;;;;;4955068;28;20695;-80
2022/04/08 05:08:20;;;;;;;10.55;2.03;;;4.80;99.90;;;;;;4971778;28;20050;-80
2022/04/08 05:10:47;;;;;;;11.02;1.92;;;5.80;99.90;;;;;;4987413;28;20046;-80
2022/04/08 05:13:13;;;;;;;6.82;1.52;;;4.90;99.90;;;;;;4971597;28;20064;-80
2022/04/08 05:15:42;;;;;;;9.85;1.73;;;5.00;99.90;;;;;;4955119;28;20500;-80
2022/04/08 05:18:12;;;;;;;8.90;1.80;;;5.70;99.90;;;;;;5003918;28;20045;-80
2022/04/08 05:20:38;;;;;;;9.02;1.58;;;5.00;99.90;;;;;;4971679;28;20041;-80
2022/04/08 05:23:04;;;;;;;9.48;1.90;;;5.10;99.90;;;;;;4946872;28;20581;-79
2022/04/08 05:25:30;;;;;;;11.50;1.85;;;5.00;99.90;;;;;;4955583;28;20058;-79
2022/04/08 05:27:56;;;;;;;12.20;2.22;;;5.10;99.90;;;;;;4970739;28;20488;-79
2022/04/08 05:30:22;;;;;;;12.88;2.20;;;5.10;99.90;;;;;;4987417;28;20384;-79
2022/04/08 05:32:48;;;;;;;10.88;1.90;;;5.10;99.90;;;;;;4971225;28;20479;-79
2022/04/08 05:35:15;;;;;;;7.78;1.77;;;6.00;99.90;;;;;;4986911;28;20054;-79
2022/04/08 05:37:42;;;;;;;11.60;1.90;;;5.20;99.90;;;;;;4955402;28;20092;-79
2022/04/08 05:40:14;;;;;;;7.20;1.90;;;5.20;99.90;;;;;;4970963;28;20145;-79
2022/04/08 05:42:42;;;;;;;9.68;2.05;;;5.30;99.90;;;;;;4971834;28;20054;-79
2022/04/08 05:45:09;;;;;;;12.43;2.50;;;5.30;99.90;;;;;;4971006;28;20066;-80
2022/04/08 05:47:35;;;;;;;11.35;2.10;;;5.30;99.90;;;;;;4988003;28;20046;-77
2022/04/08 05:50:02;;;;;;;9.35;1.90;;;5.40;99.90;;;;;;4970634;28;20046;-77
2022/04/08 05:52:27;;;;;;;14.35;2.22;;;5.80;99.90;;;;;;4947900;28;20133;-77
2022/04/08 05:54:53;;;;;;;11.93;2.10;;;5.70;99.90;;;;;;4970493;28;20125;-77
2022/04/08 05:57:21;;;;;;;9.18;2.05;;;5.60;99.90;;;;;;4971239;28;20404;-78
2022/04/08 05:59:48;;;;;;;5.47;1.83;;;5.60;99.90;;;;;;4986211;28;20586;-78
2022/04/08 06:02:14;;;;;;;8.52;2.00;;;5.60;99.90;;;;;;4970170;28;20410;-80
2022/04/08 06:04:40;;;;;;;8.50;1.90;;;5.50;99.90;;;;;;4974267;28;20057;-79
2022/04/08 06:07:06;;;;;;;6.50;1.48;;;5.50;99.90;;;;;;4958648;28;20155;-80
2022/04/08 06:09:33;;;;;;;10.60;1.40;;;6.10;99.90;;;;;;4953921;28;20133;-80
2022/04/08 06:11:59;;;;;;;5.25;1.58;;;5.40;99.90;;;;;;4972548;28;20039;-80
2022/04/08 06:14:26;;;;;;;6.22;1.58;;;5.60;99.90;;;;;;4975051;28;20054;-80
2022/04/08 06:16:52;;;;;;;7.60;1.67;;;5.40;99.90;;;;;;4959092;28;20530;-80
2022/04/08 06:19:18;;;;;;;8.82;1.88;;;5.40;99.90;;;;;;4990284;28;20439;-80
2022/04/08 06:21:44;;;;;;;5.00;1.30;;;5.40;99.90;;;;;;4989490;28;20085;-80
2022/04/08 06:24:10;;;;;;;10.20;2.10;;;5.50;99.90;;;;;;4958464;28;20050;-81
2022/04/08 06:26:36;;;;;;;6.60;1.30;;;5.60;99.90;;;;;;4972521;28;20105;-79
2022/04/08 06:29:05;;;;;;;7.28;1.30;;;5.80;99.90;;;;;;4972046;28;20050;-78
2022/04/08 06:31:32;;;;;;;6.78;1.65;;;5.50;99.90;;;;;;4972213;28;20052;-79
2022/04/08 06:33:59;;;;;;;3.38;1.10;;;5.40;99.90;;;;;;4988109;28;20120;-79
2022/04/08 06:36:29;;;;;;;4.30;1.02;;;6.40;99.90;;;;;;4972604;28;20058;-79
2022/04/08 06:38:55;;;;;;;3.05;1.23;;;6.10;99.90;;;;;;4986780;28;20509;-79
2022/04/08 06:41:21;;;;;;;3.45;1.10;;;5.20;99.90;;;;;;4972489;28;20070;-79
2022/04/08 06:43:47;;;;;;;3.45;1.13;;;5.30;99.90;;;;;;4973848;28;20061;-80
2022/04/08 06:46:13;;;;;;;6.22;1.20;;;5.70;99.90;;;;;;4971924;28;20050;-79
2022/04/08 06:48:39;;;;;;;3.80;0.90;;;5.40;99.90;;;;;;4986487;28;20542;-80
2022/04/08 06:51:05;;;;;;;2.50;0.98;;;5.50;99.90;;;;;;4975453;28;20054;-80
2022/04/08 06:53:32;;;;;;;7.50;1.27;;;5.40;99.90;;;;;;4989256;28;20089;-80
2022/04/08 06:56:01;;;;;;;2.90;1.30;;;5.50;99.90;;;;;;4987148;28;20427;-80
2022/04/08 06:58:28;;;;;;;4.50;1.05;;;6.00;99.90;;;;;;4955518;28;20105;-80
2022/04/08 07:00:54;;;;;;;4.80;1.20;;;5.70;99.90;;;;;;4971418;28;20038;-79
2022/04/08 07:03:20;;;;;;;8.90;1.35;;;6.20;99.90;;;;;;4986911;28;20402;-78
2022/04/08 07:05:46;;;;;;;7.15;1.70;;;5.80;99.90;;;;;;4988060;28;20121;-81
2022/04/08 07:08:11;;;;;;;6.65;1.70;;;6.60;99.90;;;;;;4985843;28;20515;-78
2022/04/08 07:10:40;;;;;;;6.03;1.25;;;7.30;99.90;;;;;;4973159;28;20050;-78
2022/04/08 07:13:06;;;;;;;7.43;1.45;;;6.10;99.90;;;;;;4988072;28;20116;-78
2022/04/08 07:15:32;;;;;;;3.70;1.20;;;6.80;99.90;;;;;;4970908;28;20045;-78
2022/04/08 07:17:58;;;;;;;4.50;1.20;;;6.40;99.90;;;;;;4970744;28;21576;-79
2022/04/08 07:20:24;;;;;;;3.30;1.17;;;6.50;99.90;;;;;;4973421;28;20050;-79
2022/04/08 07:22:50;;;;;;;8.40;1.58;;;6.60;99.90;;;;;;4963602;28;20484;-79
2022/04/08 07:25:16;;;;;;;5.78;1.48;;;6.80;99.90;;;;;;4956098;28;20153;-78
2022/04/08 07:27:50;;;;;;;3.42;1.13;;;6.80;99.90;;;;;;4988116;28;20054;-78
2022/04/08 07:30:19;;;;;;;4.28;1.45;;;6.90;99.90;;;;;;4971518;28;20637;-78
2022/04/08 07:32:50;;;;;;;5.57;1.70;;;7.10;99.90;;;;;;4988825;28;20050;-78
2022/04/08 07:35:16;;;;;;;4.40;1.35;;;7.20;99.90;;;;;;4972150;28;20077;-79
2022/04/08 07:37:42;;;;;;;4.35;1.10;;;7.30;99.90;;;;;;4972746;28;20125;-78
2022/04/08 07:40:11;;;;;;;5.82;1.38;;;7.40;99.90;;;;;;4972087;28;20141;-78
2022/04/08 07:42:37;;;;;;;4.63;1.30;;;7.50;99.90;;;;;;4988914;28;20046;-78
2022/04/08 07:45:04;;;;;;;7.53;1.20;;;7.70;99.90;;;;;;4988063;28;20065;-78
2022/04/08 07:47:30;;;;;;;5.65;1.50;;;7.90;99.90;;;;;;4988425;28;20050;-78
2022/04/08 07:50:02;;;;;;;3.97;1.40;;;8.00;99.90;;;;;;4964178;28;20467;-79
2022/04/08 07:52:28;;;;;;;6.05;1.35;;;8.10;99.90;;;;;;4956794;28;20119;-78
2022/04/08 07:54:55;;;;;;;5.85;1.48;;;8.60;99.90;;;;;;4988453;28;20813;-78
2022/04/08 07:57:21;;;;;;;7.70;1.70;;;8.30;99.90;;;;;;4971620;28;20551;-79
2022/04/08 07:59:47;;;;;;;7.75;1.65;;;8.30;99.90;;;;;;4972792;28;20125;-78
2022/04/08 08:02:13;;;;;;;7.05;1.10;;;8.40;99.90;;;;;;4988212;28;20050;-78
2022/04/08 08:04:39;;;;;;;6.68;1.67;;;8.40;99.90;;;;;;4955622;28;20050;-78
2022/04/08 08:07:05;;;;;;;5.13;1.35;;;8.50;99.90;;;;;;4988467;28;20107;-79
2022/04/08 08:09:32;;;;;;;6.93;1.33;;;8.50;99.90;;;;;;4988099;28;20050;-78
2022/04/08 08:11:58;;;;;;;4.28;1.25;;;8.50;99.90;;;;;;4956395;28;20078;-79
2022/04/08 08:14:23;;;;;;;4.97;1.27;;;8.80;99.90;;;;;;4955841;28;20703;-79
2022/04/08 08:16:49;;;;;;;4.57;1.20;;;8.70;99.90;;;;;;4988111;28;20054;-79
2022/04/08 08:19:15;;;;;;;4.53;1.30;;;8.90;99.90;;;;;;4961352;28;20054;-78
2022/04/08 08:21:41;;;;;;;2.50;1.10;;;9.00;99.90;;;;;;4971153;28;20472;-77
2022/04/08 08:24:06;;;;;;;2.95;1.15;;;9.10;99.90;;;;;;4954439;28;20062;-78
2022/04/08 08:26:33;;;;;;;8.63;1.50;;;9.20;99.90;;;;;;4987560;28;20046;-78
2022/04/08 08:28:59;;;;;;;6.70;1.38;;;9.40;99.90;;;;;;4963081;28;20121;-78
2022/04/08 08:31:25;;;;;;;6.72;1.33;;;9.50;99.90;;;;;;4986580;28;20054;-78
2022/04/08 08:33:51;;;;;;;5.60;1.40;;;9.50;99.90;;;;;;4987530;28;20050;-77
2022/04/08 08:36:17;;;;;;;6.18;1.38;;;9.50;99.90;;;;;;4986869;28;20113;-77
2022/04/08 08:38:43;;;;;;;5.85;1.60;;;9.60;99.90;;;;;;4954960;28;20042;-77
2022/04/08 08:41:10;;;;;;;5.47;1.50;;;9.70;99.90;;;;;;4971388;28;20046;-78
2022/04/08 08:43:36;;;;;;;7.55;1.50;;;9.80;99.90;;;;;;4988336;28;20058;-78
2022/04/08 08:46:09;;;;;;;4.95;1.30;;;10.00;99.90;;;;;;4987263;28;20519;-78
2022/04/08 08:48:35;;;;;;;3.92;1.38;;;10.10;99.90;;;;;;4970854;28;20053;-79
2022/04/08 08:51:03;;;;;;;6.15;1.48;;;10.10;99.90;;;;;;4971335;28;20045;-80
2022/04/08 08:53:30;;;;;;;5.97;1.40;;;10.20;99.90;;;;;;4970391;28;20097;-80
2022/04/08 08:55:56;;;;;;;5.03;1.10;;;10.00;99.90;;;;;;4948325;28;20058;-79
2022/04/08 08:58:23;;;;;;;9.10;1.80;;;9.80;99.90;;;;;;4952471;28;20467;-80
2022/04/08 09:00:49;;;;;;;7.13;1.50;;;9.80;99.90;;;;;;4954725;28;20510;-81
2022/04/08 09:03:15;;;;;;;5.03;1.40;;;10.00;99.90;;;;;;4961570;28;20050;-80
2022/04/08 09:05:46;;;;;;;6.85;1.58;;;10.20;99.90;;;;;;4970071;28;20042;-81
2022/04/08 09:08:13;;;;;;;7.90;1.35;;;10.30;99.90;;;;;;4976059;28;20085;-81
2022/04/08 09:10:52;;;;;;;4.20;1.25;;;10.30;99.90;;;;;;4970733;28;20100;-79
2022/04/08 09:13:20;;;;;;;4.40;1.20;;;10.40;99.90;;;;;;4985696;28;20540;-78
2022/04/08 09:16:00;;;;;;;7.53;1.30;;;10.50;99.90;;;;;;4959570;28;20076;-80
2022/04/08 09:18:34;;;;;;;5.80;1.50;;;10.70;99.90;;;;;;4943040;28;20530;-79
2022/04/08 09:21:00;;;;;;;5.55;1.40;;;10.90;99.90;;;;;;4954731;28;20096;-79
2022/04/08 09:23:28;;;;;;;6.13;1.50;;;11.10;99.90;;;;;;4952184;28;20375;-79
2022/04/08 09:26:01;;;;;;;3.90;1.20;;;11.20;99.90;;;;;;4985642;28;20507;-79
2022/04/08 09:28:34;;;;;;;4.90;1.20;;;11.10;99.90;;;;;;4993419;28;20046;-79
2022/04/08 09:31:01;;;;;;;6.63;1.35;;;11.00;99.90;;;;;;4986719;28;20053;-79
2022/04/08 09:33:27;;;;;;;5.60;1.30;;;11.00;99.90;;;;;;4937606;28;20042;-79
2022/04/08 09:35:54;;;;;;;3.40;1.20;;;11.00;99.90;;;;;;4985696;28;20248;-79
2022/04/08 09:38:25;;;;;;;3.83;1.50;;;10.70;99.90;;;;;;4985801;28;20053;-79
2022/04/08 09:41:02;;;;;;;3.60;1.27;;;10.20;99.90;;;;;;4989177;28;20042;-79
2022/04/08 09:43:36;;;;;;;3.92;1.20;;;9.90;99.90;;;;;;4989756;28;20643;-79
2022/04/08 09:46:16;;;;;;;4.18;1.40;;;9.40;99.90;;;;;;4979602;28;20116;-79
2022/04/08 09:48:42;;;;;;;2.97;1.00;;;9.00;99.90;;;;;;4956397;28;20053;-79
2022/04/08 09:51:11;;;;;;;4.93;1.17;;;8.50;99.90;;;;;;4957604;28;20077;-79
2022/04/08 09:53:37;;;;;;;4.20;1.13;;;8.40;99.90;;;;;;4946265;28;20046;-79
2022/04/08 09:56:12;;;;;;;4.20;1.20;;;8.50;99.90;;;;;;4969698;28;20049;-79
2022/04/08 09:58:40;;;;;;;5.40;1.27;;;8.60;99.90;;;;;;4971798;28;20053;-79
2022/04/08 10:01:07;;;;;;;3.13;1.20;;;8.70;99.90;;;;;;4972161;28;20050;-79
2022/04/08 10:03:34;;;;;;;6.72;1.58;;;8.80;99.90;;;;;;4971819;28;20042;-79
2022/04/08 10:06:00;;;;;;;4.03;1.60;;;8.90;99.90;;;;;;4956132;28;20050;-79
2022/04/08 10:08:27;;;;;;;7.22;1.30;;;9.20;99.90;;;;;;4968484;28;20054;-79
2022/04/08 10:11:06;;;;;;;6.47;1.40;;;9.40;99.90;;;;;;4988244;28;20400;-79
2022/04/08 10:13:58;;;;;;;3.53;1.17;;;9.60;99.90;;;;;;4972192;28;20116;-79
2022/04/08 10:16:24;;;;;;;3.00;1.20;;;9.80;99.90;;;;;;4987513;28;20045;-79
2022/04/08 10:18:52;;;;;;;5.65;1.40;;;10.10;99.90;;;;;;4956020;28;20414;-78
2022/04/08 10:21:18;;;;;;;7.85;1.63;;;10.50;99.90;;;;;;4955440;28;20467;-79
2022/04/08 10:23:53;;;;;;;5.47;1.52;;;10.50;99.90;;;;;;4971850;28;20145;-79
2022/04/08 10:26:28;;;;;;;5.50;1.33;;;10.50;99.90;;;;;;4986453;28;20065;-78
2022/04/08 10:28:55;;;;;;;4.68;1.33;;;10.50;99.90;;;;;;4972439;28;20049;-79
2022/04/08 10:31:26;;;;;;;8.27;1.48;;;10.50;99.90;;;;;;4972027;28;20050;-80
2022/04/08 10:33:59;;;;;;;8.57;1.48;;;10.50;99.90;;;;;;4972243;28;20514;-81
2022/04/08 10:36:33;;;;;;;6.57;1.98;;;10.50;99.90;;;;;;4948498;28;20112;-81
2022/04/08 10:39:11;;;;;;;3.85;1.15;;;10.60;99.90;;;;;;4970954;28;20050;-80
2022/04/08 10:41:49;;;;;;;5.82;1.30;;;11.10;99.90;;;;;;4987675;28;20874;-79
2022/04/08 10:44:15;;;;;;;3.53;1.20;;;11.60;99.90;;;;;;4964501;28;20050;-79
2022/04/08 10:46:50;;;;;;;5.40;1.27;;;11.60;99.90;;;;;;4971721;28;20050;-80
2022/04/08 10:49:16;;;;;;;5.45;1.40;;;12.30;99.90;;;;;;4954164;28;20050;-79
2022/04/08 10:51:49;;;;;;;4.38;1.10;;;12.60;99.90;;;;;;4988810;28;20060;-78
2022/04/08 10:54:16;;;;;;;4.78;1.35;;;12.50;99.90;;;;;;4972228;28;20061;-78
2022/04/08 10:56:55;;;;;;;6.45;1.35;;;12.60;99.90;;;;;;4972976;28;20038;-79
2022/04/08 10:59:28;;;;;;;4.82;1.38;;;12.50;99.90;;;;;;4988480;28;20042;-79
2022/04/08 11:02:05;;;;;;;5.18;1.38;;;12.30;99.90;;;;;;4989109;28;20046;-78
2022/04/08 11:04:32;;;;;;;7.25;1.48;;;12.30;99.90;;;;;;4948761;28;20046;-78
2022/04/08 11:07:06;;;;;;;4.22;1.20;;;12.40;99.90;;;;;;4982402;28;20058;-79
2022/04/08 11:09:33;;;;;;;4.85;1.35;;;12.20;99.90;;;;;;4966353;28;20058;-79
2022/04/08 11:11:59;;;;;;;5.60;1.30;;;12.30;99.90;;;;;;4972757;28;20050;-79
2022/04/08 11:14:28;;;;;;;4.90;1.40;;;12.30;99.90;;;;;;4966791;28;20076;-78
2022/04/08 11:16:54;;;;;;;4.05;1.38;;;12.40;99.90;;;;;;4989653;28;20050;-79
2022/04/08 11:19:21;;;;;;;4.47;1.45;;;12.40;99.90;;;;;;4989384;28;20061;-79
2022/04/08 11:21:48;;;;;;;6.50;1.45;;;12.40;99.90;;;;;;4989682;28;20052;-79
2022/04/08 11:24:16;;;;;;;7.07;1.50;;;12.40;99.90;;;;;;4988796;28;20058;-79
2022/04/08 11:26:50;;;;;;;5.30;1.40;;;12.40;99.90;;;;;;4957904;28;20069;-79
2022/04/08 11:29:18;;;;;;;7.40;1.60;;;12.50;99.90;;;;;;4949422;28;20066;-79
2022/04/08 11:31:47;;;;;;;4.63;1.20;;;12.70;99.90;;;;;;4988811;28;20598;-79
2022/04/08 11:34:13;;;;;;;6.90;1.35;;;12.90;99.90;;;;;;4972843;28;20104;-79
2022/04/08 11:36:39;;;;;;;4.40;1.23;;;13.10;99.90;;;;;;4972544;28;20057;-79
2022/04/08 11:39:06;;;;;;;3.92;1.05;;;13.10;99.90;;;;;;4972620;28;20046;-79
2022/04/08 11:41:37;;;;;;;5.28;1.10;;;13.50;99.90;;;;;;4963041;28;20162;-79
2022/04/08 11:44:05;;;;;;;4.22;1.15;;;13.30;99.90;;;;;;4987245;28;20046;-78
2022/04/08 11:46:31;;;;;;;6.38;1.40;;;13.30;99.90;;;;;;4970324;28;20046;-78
2022/04/08 11:48:57;;;;;;;3.50;1.30;;;13.00;99.90;;;;;;4970939;28;20079;-79
2022/04/08 11:51:23;;;;;;;6.53;1.42;;;13.10;99.90;;;;;;4987070;28;20085;-80
2022/04/08 11:53:51;;;;;;;2.78;1.25;;;13.30;99.90;;;;;;4954602;28;20050;-79
2022/04/08 11:56:22;;;;;;;4.20;1.23;;;13.40;99.90;;;;;;4970519;28;20054;-80
2022/04/08 11:59:11;;;;;;;5.47;1.20;;;13.40;99.90;;;;;;4986557;28;20050;-79
2022/04/08 12:01:39;;;;;;;6.65;1.38;;;13.50;99.90;;;;;;4985499;28;20042;-78
2022/04/08 12:04:10;;;;;;;5.70;1.33;;;13.80;99.90;;;;;;4970648;28;20086;-79
2022/04/08 12:06:46;;;;;;;2.60;1.10;;;13.90;99.90;;;;;;4970213;28;20050;-78
2022/04/08 12:09:14;;;;;;;6.07;1.17;;;14.00;99.90;;;;;;4969424;28;20050;-79
2022/04/08 12:11:42;;;;;;;5.80;1.50;;;14.30;99.90;;;;;;4977966;28;20057;-79
2022/04/08 12:14:10;;;;;;;7.60;1.63;;;14.10;99.90;;;;;;4952180;28;20054;-79
2022/04/08 12:16:37;;;;;;;4.75;1.20;;;14.10;99.90;;;;;;4951471;28;20134;-79
2022/04/08 12:19:04;;;;;;;5.60;1.20;;;14.40;99.90;;;;;;4985656;28;20042;-80
2022/04/08 12:21:31;;;;;;;6.63;1.50;;;14.00;99.90;;;;;;4954351;28;20050;-79
2022/04/08 12:24:00;;;;;;;3.45;1.15;;;13.40;99.90;;;;;;4968834;28;20069;-79
2022/04/08 12:26:33;;;;;;;5.18;1.23;;;13.30;99.90;;;;;;4987046;28;20047;-79
2022/04/08 12:29:12;;;;;;;6.88;1.77;;;13.40;99.90;;;;;;4960635;28;20293;-79
2022/04/08 12:31:49;;;;;;;5.95;1.45;;;13.50;99.90;;;;;;4984602;28;20407;-79
2022/04/08 12:34:16;;;;;;;6.43;1.88;;;13.60;99.90;;;;;;4968982;28;20046;-79
2022/04/08 12:36:45;;;;;;;5.85;1.45;;;13.60;99.90;;;;;;4968242;28;20369;-79
2022/04/08 12:39:11;;;;;;;4.63;1.35;;;13.60;99.90;;;;;;4985915;28;20373;-79
2022/04/08 12:41:39;;;;;;;4.10;1.40;;;13.50;99.90;;;;;;4985339;28;20057;-79
2022/04/08 12:44:05;;;;;;;6.97;1.50;;;13.40;99.90;;;;;;4969993;28;20054;-79
2022/04/08 12:46:31;;;;;;;5.72;1.65;;;13.80;99.90;;;;;;4985458;28;20046;-79
2022/04/08 12:48:56;;;;;;;4.82;1.40;;;13.90;99.90;;;;;;4953305;28;20038;-78
2022/04/08 12:51:22;;;;;;;6.03;1.33;;;14.50;99.90;;;;;;4947297;28;20054;-79
2022/04/08 12:53:48;;;;;;;4.22;1.10;;;14.50;99.20;;;;;;4969184;28;20057;-79